Weather observations for the past three days for
Tulsa, Tulsa International Airport
Metric (Imperial)
Date Time (cdt) Wind (kph) Vis. (km) Weather Sky Cond. Temperature (ºC) Relative Humidity Wind Chill (°C) Heat Index (°C) Pressure Precipitation (cm)
Air Dwpt 6 hour altimeter (cm) sea level (mb) 1 hr 3 hr 6 hr
Max. Min.
02 11:53 NW 11 16.09 A Few Clouds FEW120 18.9 5.6 42% 76.68 1021.9
02 10:53 N 13 16.09 A Few Clouds FEW120 17.8 5.6 45% 76.66 1021.8
02 09:53 N 13 G 28 16.09 A Few Clouds FEW080 16.1 5.6 50% 76.68 1021.9
02 08:53 N 11 16.09 A Few Clouds FEW080 15 7.2 60% 76.66 1021.5
02 07:53 N 7 16.09 A Few Clouds FEW075 FEW150 12.8 8.3 74% 76.61 1021.1
02 06:53 NW 7 16.09 Partly Cloudy SCT075 SCT100 SCT200 11.1 7.2 11.7 8.9 77% 76.53 1020.0
02 05:53 W 7 16.09 Partly Cloudy SCT090 SCT200 10.6 6.7 77% 76.5 1019.7
02 04:53 W 6 16.09 Mostly Cloudy SCT065 SCT090 BKN200 11.1 7.2 77% 76.5 1019.7
02 03:53 NW 9 16.09 Mostly Cloudy BKN090 BKN200 11.1 6.7 75% 76.5 1019.7
02 02:53 N 9 16.09 Mostly Cloudy BKN090 BKN200 10.6 7.2 80% 76.48 1019.2
02 01:53 Calm 16.09 Partly Cloudy SCT095 SCT200 10 7.8 86% 76.45 1018.9
02 00:53 Calm 16.09 Mostly Cloudy BKN200 10.6 5.6 18.9 10 71% 76.45 1018.8
01 23:53 Calm 16.09 Mostly Cloudy FEW100 BKN250 11.7 4.4 61% 76.43 1018.6
01 22:53 S 7 16.09 Mostly Cloudy FEW100 BKN250 13.3 4.4 55% 76.45 1019.0
01 21:53 SE 9 16.09 Mostly Cloudy FEW120 BKN250 13.9 3.9 51% 76.43 1018.7
01 20:53 SE 6 16.09 Mostly Cloudy SCT200 BKN250 16.1 3.3 43% 76.38 1017.9
01 19:53 SE 6 16.09 Mostly Cloudy FEW120 SCT200 BKN250 17.2 2.2 37% 76.33 1017.3
01 18:53 NE 9 16.09 Mostly Cloudy SCT200 BKN250 18.9 1.1 21.1 18.9 30% 76.3 1017.0
01 17:53 N 9 16.09 Mostly Cloudy FEW065 SCT200 BKN250 18.9 1.7 32% 76.3 1016.8
01 16:53 N 20 16.09 Mostly Cloudy FEW060 BKN250 20 2.2 31% 76.28 1016.5
01 15:53 N 17 G 31 16.09 Mostly Cloudy FEW065 BKN250 20.6 1.7 29% 76.3 1016.8
01 14:53 N 19 G 26 16.09 Mostly Cloudy SCT060 BKN250 20.6 4.4 35% 76.4 1018.2
01 13:53 NW 19 16.09 Mostly Cloudy BKN060 BKN250 19.4 5 39% 76.45 1019.0
01 12:53 N 17 16.09 Mostly Cloudy BKN250 18.9 5 19.4 8.9 40% 76.5 1019.5
01 11:53 NE 15 16.09 Mostly Cloudy BKN250 18.9 6.1 43% 76.5 1019.7
01 10:53 Vrbl 11 16.09 Mostly Cloudy BKN250 17.8 6.1 46% 76.5 1019.7
01 09:53 NE 11 16.09 Mostly Cloudy BKN250 16.1 7.2 56% 76.48 1019.4
01 08:53 NE 7 16.09 Mostly Cloudy FEW150 BKN250 13.9 8.3 69% 76.45 1019.0
01 07:53 N 9 16.09 Mostly Cloudy SCT120 BKN250 11.1 8.9 86% 76.48 1019.4
01 06:53 N 6 16.09 Partly Cloudy SCT080 SCT150 SCT200 8.9 7.8 11.7 8.3 93% 76.43 1018.6
01 05:53 N 9 16.09 Partly Cloudy SCT100 SCT200 10 7.8 86% 9 76.38 1017.9
01 04:53 N 9 16.09 Partly Cloudy FEW100 SCT200 8.9 7.2 89% 8 76.4 1018.2
01 03:53 N 7 16.09 Partly Cloudy SCT200 8.9 7.2 89% 8 76.38 1017.8
01 02:53 NW 9 16.09 Partly Cloudy SCT200 9.4 7.2 86% 8 76.38 1017.9
01 01:53 Calm 16.09 Mostly Cloudy BKN200 11.1 7.8 80% 76.38 1017.9
01 00:53 NW 7 16.09 Mostly Cloudy BKN200 11.1 8.3 18.9 10.6 83% 76.38 1018.0
30 23:53 NW 7 16.09 Partly Cloudy FEW150 SCT200 12.2 8.3 77% 76.38 1017.9
30 22:53 Calm 16.09 Mostly Cloudy FEW190 BKN250 12.2 7.8 75% 76.38 1018.2
30 21:53 Vrbl 6 16.09 Overcast FEW190 OVC250 14.4 6.7 60% 76.35 1017.7
30 20:53 N 6 16.09 Mostly Cloudy BKN190 BKN250 16.1 6.1 52% 76.3 1016.8
30 19:53 N 9 16.09 Overcast BKN130 OVC250 17.8 6.1 46% 76.25 1016.2
30 18:53 NE 11 16.09 Overcast FEW150 SCT190 OVC250 18.9 5 21.1 17.8 40% 76.2 1015.7
30 17:53 NE 17 16.09 Mostly Cloudy FEW140 BKN250 20.6 5.6 38% 76.17 1015.3
30 16:53 NE 13 16.09 Partly Cloudy SCT140 SCT250 20.6 6.1 39% 76.2 1015.5
30 15:53 NE 17 16.09 Mostly Cloudy FEW140 BKN250 20 6.1 40% 76.23 1016.0
30 14:53 NE 13 16.09 Overcast BKN140 OVC250 18.9 7.2 47% 76.3 1017.0
30 13:53 N 11 16.09 Overcast SCT110 BKN150 OVC250 18.9 5 40% 76.33 1017.1
30 12:53 Calm 16.09 Mostly Cloudy SCT110 BKN160 BKN250 17.8 7.2 17.8 8.9 50% 76.4 1018.2
30 11:53 N 6 16.09 Overcast FEW120 BKN150 OVC250 15.6 7.8 60% 76.45 1018.8
30 10:53 NE 9 16.09 Overcast BKN160 OVC250 14.4 7.8 65% 76.48 1019.2
30 09:53 NE 9 16.09 Overcast FEW120 BKN150 OVC250 13.9 7.2 64% 76.43 1018.7
30 08:53 E 9 16.09 Overcast FEW120 BKN160 OVC200 12.8 6.7 67% 76.45 1018.8
30 07:53 E 7 16.09 Overcast SCT120 BKN160 OVC200 11.1 6.7 75% 76.4 1018.5
30 06:53 Calm 16.09 Mostly Cloudy SCT100 SCT170 BKN250 8.9 5.6 12.2 8.9 80% 76.4 1018.3
30 05:53 NE 9 16.09 Partly Cloudy SCT170 SCT250 10.6 6.1 74% 76.4 1018.2
30 04:53 NE 11 16.09 Partly Cloudy FEW170 SCT250 11.1 6.1 72% 76.38 1018.0
30 03:53 NE 9 16.09 Partly Cloudy FEW170 SCT250 11.1 6.1 72% 76.38 1018.0
30 02:53 NE 17 16.09 Partly Cloudy FEW170 SCT250 12.2 6.1 67% 76.35 1017.8
30 01:53 N 9 16.09 Partly Cloudy FEW170 SCT250 11.1 6.7 75% 76.4 1018.3
30 00:53 Vrbl 7 16.09 A Few Clouds FEW250 11.7 6.7 17.2 11.7 72% 76.38 1017.9
29 23:53 Vrbl 9 16.09 Fair CLR 12.8 7.2 69% 76.4 1018.1
29 22:53 NE 7 16.09 Fair CLR 13.9 7.2 64% 76.38 1017.9
29 21:53 NE 17 16.09 Fair CLR 14.4 7.8 65% 76.38 1018.0
29 20:53 NE 11 16.09 Partly Cloudy SCT120 15.6 7.8 60% 76.33 1017.3
29 19:53 NE 19 16.09 Mostly Cloudy BKN120 BKN250 16.7 7.8 56% 76.28 1016.5
29 18:53 N 22 G 41 16.09 Mostly Cloudy BKN120 17.2 7.8 20.6 17.2 54% 76.25 1016.2
29 17:53 NE 20 G 35 16.09 Mostly Cloudy BKN110 18.3 7.8 51% 76.23 1016.1
29 16:53 NE 24 G 39 16.09 Mostly Cloudy BKN110 19.4 7.8 47% 76.2 1015.6
29 15:53 NE 22 G 37 16.09 Mostly Cloudy BKN110 18.9 7.8 49% 76.28 1016.5
29 14:53 NE 20 G 33 16.09 Mostly Cloudy BKN110 18.3 7.2 49% 76.33 1017.3
29 13:53 NE 20 G 31 16.09 Mostly Cloudy BKN110 BKN250 18.3 7.8 51% 76.35 1017.6
29 12:53 N 20 G 37 16.09 Mostly Cloudy BKN110 BKN250 17.2 6.7 17.2 8.9 50% 76.4 1018.4
Date Time (cdt) Wind (kph) Vis. (km) Weather Sky Cond. Air Dwpt Max. Min. Relative Humidity Wind Chill (°C) Heat Index (°C) altimeter (cm) sea level (mb) 1 hr 3 hr 6 hr
6 hour
Temperature (ºC) Pressure Precipitation (cm)